createdAt,value
2022-10-05T00:00:23.595Z,1016.94
2022-10-05T00:01:26.625Z,1016.91
2022-10-05T00:02:29.748Z,1016.90
2022-10-05T00:04:04.687Z,1016.87
2022-10-05T00:05:08.037Z,1016.78
2022-10-05T00:06:11.160Z,1016.80
2022-10-05T00:07:46.145Z,1016.77
2022-10-05T00:08:49.030Z,1016.79
2022-10-05T00:09:51.947Z,1016.80
2022-10-05T00:11:26.677Z,1016.82
2022-10-05T00:12:29.306Z,1016.81
2022-10-05T00:13:32.047Z,1016.78
2022-10-05T00:15:06.716Z,1016.77
2022-10-05T00:16:09.596Z,1016.70
2022-10-05T00:17:12.714Z,1016.71
2022-10-05T00:18:47.198Z,1016.66
2022-10-05T00:19:49.986Z,1016.68
2022-10-05T00:20:52.799Z,1016.69
2022-10-05T00:22:27.390Z,1016.68
2022-10-05T00:23:30.240Z,1016.67
2022-10-05T00:24:33.215Z,1016.69
2022-10-05T00:26:07.612Z,1016.67
2022-10-05T00:27:10.436Z,1016.71
2022-10-05T00:28:13.318Z,1016.75
2022-10-05T00:29:48.529Z,1016.72
2022-10-05T00:30:51.461Z,1016.72
2022-10-05T00:31:54.367Z,1016.73
2022-10-05T00:33:29.645Z,1016.70
2022-10-05T00:34:32.413Z,1016.69
2022-10-05T00:35:35.229Z,1016.67
2022-10-05T00:37:09.928Z,1016.64
2022-10-05T00:38:12.838Z,1016.66
2022-10-05T00:39:15.667Z,1016.68
2022-10-05T00:40:50.047Z,1016.72
2022-10-05T00:41:52.786Z,1016.76
2022-10-05T00:42:55.380Z,1016.79
2022-10-05T00:44:30.045Z,1016.80
2022-10-05T00:45:33.091Z,1016.74
2022-10-05T00:46:36.159Z,1016.77
2022-10-05T00:48:11.378Z,1016.74
2022-10-05T00:49:14.244Z,1016.70
2022-10-05T00:50:17.006Z,1016.74
2022-10-05T00:51:51.550Z,1016.68
2022-10-05T00:52:54.234Z,1016.66
2022-10-05T00:53:57.240Z,1016.67
2022-10-05T00:55:36.149Z,1016.65
2022-10-05T00:56:38.912Z,1016.65
2022-10-05T00:57:42.219Z,1016.70
2022-10-05T00:59:16.755Z,1016.62
2022-10-05T01:00:23.086Z,1016.61
2022-10-05T01:01:26.069Z,1016.61
2022-10-05T01:02:34.398Z,1016.52
2022-10-05T01:04:11.745Z,1016.54
2022-10-05T01:05:14.481Z,1016.44
2022-10-05T01:06:17.324Z,1016.47
2022-10-05T01:07:51.877Z,1016.43
2022-10-05T01:08:54.595Z,1016.42
2022-10-05T01:09:57.523Z,1016.44
2022-10-05T01:11:32.107Z,1016.45
2022-10-05T01:12:34.905Z,1016.50
2022-10-05T01:13:37.593Z,1016.52
2022-10-05T01:15:12.113Z,1016.49
2022-10-05T01:16:15.005Z,1016.49
2022-10-05T01:17:18.006Z,1016.44
2022-10-05T01:18:52.523Z,1016.38
2022-10-05T01:19:55.116Z,1016.41
2022-10-05T01:20:57.872Z,1016.43
2022-10-05T01:22:32.263Z,1016.37
2022-10-05T01:23:35.016Z,1016.40
2022-10-05T01:24:37.642Z,1016.41
2022-10-05T01:26:11.999Z,1016.40
2022-10-05T01:27:14.806Z,1016.36
2022-10-05T01:28:17.879Z,1016.31
2022-10-05T01:29:52.896Z,1016.27
2022-10-05T01:30:55.511Z,1016.29
2022-10-05T01:31:58.658Z,1016.29
2022-10-05T01:33:33.352Z,1016.30
2022-10-05T01:34:35.957Z,1016.26
2022-10-05T01:35:38.864Z,1016.22
2022-10-05T01:37:13.232Z,1016.25
2022-10-05T01:38:15.903Z,1016.26
2022-10-05T01:39:18.592Z,1016.17
2022-10-05T01:40:53.162Z,1016.16
2022-10-05T01:41:56.008Z,1016.15
2022-10-05T01:42:58.646Z,1016.13
2022-10-05T01:44:33.159Z,1016.13
2022-10-05T01:45:36.049Z,1016.08
2022-10-05T01:46:39.075Z,1016.08
2022-10-05T01:48:14.107Z,1016.04
2022-10-05T01:49:16.821Z,1015.99
2022-10-05T01:50:19.632Z,1016.02
2022-10-05T01:51:54.097Z,1015.97
2022-10-05T01:52:56.983Z,1015.95
2022-10-05T01:53:59.599Z,1015.90
2022-10-05T01:55:34.194Z,1015.87
2022-10-05T01:56:37.005Z,1015.85
2022-10-05T01:57:40.527Z,1015.89
2022-10-05T01:59:15.046Z,1015.85
2022-10-05T02:00:23.716Z,1015.82
2022-10-05T02:01:26.934Z,1015.76
2022-10-05T02:02:30.371Z,1015.78
2022-10-05T02:04:05.123Z,1015.75
2022-10-05T02:05:49.136Z,1015.76
2022-10-05T02:06:52.537Z,1015.73
2022-10-05T02:08:27.102Z,1015.69
2022-10-05T02:09:29.843Z,1015.70
2022-10-05T02:10:32.401Z,1015.69
2022-10-05T02:12:06.949Z,1015.71
2022-10-05T02:13:09.622Z,1015.66
2022-10-05T02:14:12.350Z,1015.67
2022-10-05T02:15:46.933Z,1015.62
2022-10-05T02:16:50.640Z,1015.61
2022-10-05T02:17:53.217Z,1015.58
2022-10-05T02:19:27.873Z,1015.56
2022-10-05T02:20:30.495Z,1015.52
2022-10-05T02:21:33.281Z,1015.48
2022-10-05T02:23:07.852Z,1015.43
2022-10-05T02:24:10.701Z,1015.46
2022-10-05T02:25:13.385Z,1015.45
2022-10-05T02:26:48.304Z,1015.40
2022-10-05T02:27:51.212Z,1015.39
2022-10-05T02:28:54.153Z,1015.38
2022-10-05T02:30:28.507Z,1015.38
2022-10-05T02:31:31.395Z,1015.33
2022-10-05T02:32:34.450Z,1015.36
2022-10-05T02:34:08.905Z,1015.34
2022-10-05T02:35:11.564Z,1015.33
2022-10-05T02:36:14.345Z,1015.36
2022-10-05T02:37:48.637Z,1015.39
2022-10-05T02:38:51.435Z,1015.40
2022-10-05T02:39:54.159Z,1015.39
2022-10-05T02:41:28.636Z,1015.36
2022-10-05T02:42:31.607Z,1015.35
2022-10-05T02:43:34.201Z,1015.38
2022-10-05T02:45:08.609Z,1015.39
2022-10-05T02:46:11.593Z,1015.38
2022-10-05T02:47:14.514Z,1015.38
2022-10-05T02:48:49.044Z,1015.37
2022-10-05T02:49:51.737Z,1015.43
2022-10-05T02:50:54.510Z,1015.41
2022-10-05T02:52:29.050Z,1015.34
2022-10-05T02:53:31.784Z,1015.30
2022-10-05T02:54:34.583Z,1015.30
2022-10-05T02:56:09.060Z,1015.30
2022-10-05T02:57:11.833Z,1015.28
2022-10-05T02:58:14.561Z,1015.30
2022-10-05T02:59:48.972Z,1015.32
2022-10-05T03:00:23.251Z,1015.29
2022-10-05T03:01:26.254Z,1015.32
2022-10-05T03:02:29.638Z,1015.27
2022-10-05T03:04:04.159Z,1015.26
2022-10-05T03:05:06.749Z,1015.25
2022-10-05T03:06:09.409Z,1015.27
2022-10-05T03:07:44.716Z,1015.23
2022-10-05T03:08:47.572Z,1015.31
2022-10-05T03:09:50.243Z,1015.29
2022-10-05T03:11:29.992Z,1015.22
2022-10-05T03:12:32.602Z,1015.20
2022-10-05T03:13:35.312Z,1015.20
2022-10-05T03:15:09.823Z,1015.15
2022-10-05T03:16:12.646Z,1015.13
2022-10-05T03:17:15.729Z,1015.07
2022-10-05T03:18:50.213Z,1015.05
2022-10-05T03:19:52.786Z,1015.06
2022-10-05T03:20:55.377Z,1015.12
2022-10-05T03:22:29.884Z,1015.17
2022-10-05T03:23:32.815Z,1015.17
2022-10-05T03:24:35.554Z,1015.16
2022-10-05T03:26:10.071Z,1015.20
2022-10-05T03:27:12.882Z,1015.27
2022-10-05T03:28:15.882Z,1015.22
2022-10-05T03:29:50.590Z,1015.15
2022-10-05T03:30:53.472Z,1015.14
2022-10-05T03:31:56.604Z,1015.16
2022-10-05T03:33:31.021Z,1015.15
2022-10-05T03:34:33.624Z,1015.12
2022-10-05T03:35:36.287Z,1015.15
2022-10-05T03:37:10.802Z,1015.19
2022-10-05T03:38:13.479Z,1015.19
2022-10-05T03:39:16.095Z,1015.19
2022-10-05T03:40:50.376Z,1015.27
2022-10-05T03:41:53.005Z,1015.28
2022-10-05T03:42:55.751Z,1015.27
2022-10-05T03:44:30.438Z,1015.28
2022-10-05T03:45:33.055Z,1015.26
2022-10-05T03:46:36.116Z,1015.25
2022-10-05T03:48:12.982Z,1015.29
2022-10-05T03:49:15.609Z,1015.29
2022-10-05T03:50:18.141Z,1015.28
2022-10-05T03:51:52.561Z,1015.29
2022-10-05T03:52:55.116Z,1015.27
2022-10-05T03:53:57.793Z,1015.25
2022-10-05T03:55:32.425Z,1015.25
2022-10-05T03:56:35.277Z,1015.26
2022-10-05T03:57:38.629Z,1015.31
2022-10-05T03:59:13.171Z,1015.25
2022-10-05T04:00:22.875Z,1015.31
2022-10-05T04:01:25.874Z,1015.32
2022-10-05T04:02:29.089Z,1015.30
2022-10-05T04:04:03.822Z,1015.30
2022-10-05T04:05:52.212Z,1015.30
2022-10-05T04:06:55.899Z,1015.25
2022-10-05T04:07:58.781Z,1015.26
2022-10-05T04:09:39.570Z,1015.26
2022-10-05T04:10:42.561Z,1015.22
2022-10-05T04:11:45.341Z,1015.30
2022-10-05T04:13:20.119Z,1015.25
2022-10-05T04:14:22.931Z,1015.24
2022-10-05T04:15:30.347Z,1015.25
2022-10-05T04:17:05.717Z,1015.22
2022-10-05T04:18:08.651Z,1015.21
2022-10-05T04:19:11.652Z,1015.26
2022-10-05T04:20:46.729Z,1015.24
2022-10-05T04:21:49.499Z,1015.20
2022-10-05T04:22:52.257Z,1015.15
2022-10-05T04:24:26.886Z,1015.15
2022-10-05T04:25:29.937Z,1015.19
2022-10-05T04:26:32.786Z,1015.15
2022-10-05T04:28:08.391Z,1015.15
2022-10-05T04:29:17.875Z,1015.12
2022-10-05T04:30:21.155Z,1015.09
2022-10-05T04:31:56.232Z,1015.07
2022-10-05T04:32:59.111Z,1015.05
2022-10-05T04:34:01.886Z,1015.03
2022-10-05T04:35:36.794Z,1014.97
2022-10-05T04:36:39.724Z,1014.97
2022-10-05T04:37:46.335Z,1014.98
2022-10-05T04:39:21.763Z,1014.94
2022-10-05T04:40:24.421Z,1014.93
2022-10-05T04:41:27.501Z,1014.97
2022-10-05T04:43:01.981Z,1014.94
2022-10-05T04:44:05.136Z,1014.89
2022-10-05T04:45:10.656Z,1014.93
2022-10-05T04:46:45.883Z,1014.91
2022-10-05T04:47:49.298Z,1014.85
2022-10-05T04:48:52.020Z,1014.88
2022-10-05T04:50:26.842Z,1014.86
2022-10-05T04:51:29.671Z,1014.92
2022-10-05T04:52:37.223Z,1014.87
2022-10-05T04:54:11.969Z,1014.87
2022-10-05T04:55:14.792Z,1014.89
2022-10-05T04:56:18.114Z,1014.83
2022-10-05T04:57:52.784Z,1014.84
2022-10-05T04:58:55.710Z,1014.87
2022-10-05T04:59:58.407Z,1014.86
2022-10-05T05:00:23.506Z,1014.86
2022-10-05T05:01:26.597Z,1014.81
2022-10-05T05:02:29.280Z,1014.79
2022-10-05T05:04:04.348Z,1014.85
2022-10-05T05:05:07.354Z,1014.80
2022-10-05T05:06:27.875Z,1014.77
2022-10-05T05:08:03.019Z,1014.79
2022-10-05T05:09:05.950Z,1014.78
2022-10-05T05:10:08.796Z,1014.78
2022-10-05T05:11:43.604Z,1014.77
2022-10-05T05:12:46.314Z,1014.76
2022-10-05T05:13:49.188Z,1014.75
2022-10-05T05:15:24.223Z,1014.73
2022-10-05T05:16:27.626Z,1014.74
2022-10-05T05:17:31.251Z,1014.72
2022-10-05T05:19:06.025Z,1014.70
2022-10-05T05:20:09.013Z,1014.67
2022-10-05T05:21:12.000Z,1014.75
2022-10-05T05:22:46.612Z,1014.73
2022-10-05T05:23:49.669Z,1014.74
2022-10-05T05:24:52.404Z,1014.74
2022-10-05T05:26:27.286Z,1014.73
2022-10-05T05:27:37.025Z,1014.72
2022-10-05T05:28:40.384Z,1014.67
2022-10-05T05:30:14.914Z,1014.66
2022-10-05T05:31:18.209Z,1014.69
2022-10-05T05:32:21.609Z,1014.70
2022-10-05T05:33:56.270Z,1014.62
2022-10-05T05:34:59.073Z,1014.62
2022-10-05T05:36:02.106Z,1014.58
2022-10-05T05:37:42.129Z,1014.58
2022-10-05T05:38:45.215Z,1014.60
2022-10-05T05:39:48.098Z,1014.56
2022-10-05T05:41:22.904Z,1014.59
2022-10-05T05:42:25.702Z,1014.57
2022-10-05T05:43:28.575Z,1014.62
2022-10-05T05:45:03.449Z,1014.65
2022-10-05T05:46:06.409Z,1014.63
2022-10-05T05:47:25.660Z,1014.59
2022-10-05T05:49:00.794Z,1014.56
2022-10-05T05:50:08.576Z,1014.54
2022-10-05T05:51:11.320Z,1014.58
2022-10-05T05:52:46.028Z,1014.51
2022-10-05T05:53:48.719Z,1014.50
2022-10-05T05:54:51.542Z,1014.55
2022-10-05T05:56:27.945Z,1014.55
2022-10-05T05:57:31.177Z,1014.56
2022-10-05T05:58:33.901Z,1014.54
2022-10-05T06:00:22.885Z,1014.54
2022-10-05T06:01:50.376Z,1014.52
2022-10-05T06:02:54.720Z,1014.50
2022-10-05T06:04:29.954Z,1014.56
2022-10-05T06:05:32.988Z,1014.58
2022-10-05T06:06:36.202Z,1014.55
2022-10-05T06:08:16.850Z,1014.56
2022-10-05T06:09:19.534Z,1014.56
2022-10-05T06:10:22.533Z,1014.50
2022-10-05T06:11:57.479Z,1014.55
2022-10-05T06:13:06.474Z,1014.54
2022-10-05T06:14:09.305Z,1014.53
2022-10-05T06:15:43.650Z,1014.53
2022-10-05T06:16:47.326Z,1014.57
2022-10-05T06:17:50.483Z,1014.54
2022-10-05T06:19:25.294Z,1014.57
2022-10-05T06:20:28.117Z,1014.54
2022-10-05T06:21:30.840Z,1014.59
2022-10-05T06:23:05.424Z,1014.56
2022-10-05T06:24:08.169Z,1014.60
2022-10-05T06:25:10.951Z,1014.62
2022-10-05T06:26:46.158Z,1014.60
2022-10-05T06:27:49.383Z,1014.64
2022-10-05T06:28:52.623Z,1014.60
2022-10-05T06:30:27.202Z,1014.57
2022-10-05T06:31:30.205Z,1014.57
2022-10-05T06:32:33.750Z,1014.58
2022-10-05T06:34:08.508Z,1014.65
2022-10-05T06:35:11.566Z,1014.68
2022-10-05T06:36:14.410Z,1014.64
2022-10-05T06:37:49.108Z,1014.69
2022-10-05T06:38:51.924Z,1014.69
2022-10-05T06:39:58.708Z,1014.71
2022-10-05T06:41:35.433Z,1014.68
2022-10-05T06:42:38.068Z,1014.71
2022-10-05T06:43:40.834Z,1014.75
2022-10-05T06:45:15.758Z,1014.74
2022-10-05T06:46:19.473Z,1014.81
2022-10-05T06:47:22.385Z,1014.81
2022-10-05T06:49:02.551Z,1014.76
2022-10-05T06:50:05.441Z,1014.76
2022-10-05T06:51:08.396Z,1014.73
2022-10-05T06:52:43.074Z,1014.70
2022-10-05T06:53:46.134Z,1014.73
2022-10-05T06:54:48.980Z,1014.73
2022-10-05T06:56:28.345Z,1014.75
2022-10-05T06:57:31.690Z,1014.71
2022-10-05T06:58:34.783Z,1014.73
2022-10-05T07:00:23.723Z,1014.74
2022-10-05T07:01:27.279Z,1014.71
2022-10-05T07:02:31.480Z,1014.74
2022-10-05T07:04:06.215Z,1014.75
2022-10-05T07:05:08.988Z,1014.79
2022-10-05T07:06:12.122Z,1014.83
2022-10-05T07:07:46.796Z,1014.89
2022-10-05T07:08:49.449Z,1014.79
2022-10-05T07:09:52.207Z,1014.82
2022-10-05T07:11:26.681Z,1014.82
2022-10-05T07:12:30.171Z,1014.80
2022-10-05T07:13:32.972Z,1014.82
2022-10-05T07:15:07.810Z,1014.87
2022-10-05T07:16:10.773Z,1014.83
2022-10-05T07:17:14.250Z,1014.87
2022-10-05T07:18:48.980Z,1014.87
2022-10-05T07:19:51.760Z,1014.86
2022-10-05T07:21:00.292Z,1014.84
2022-10-05T07:22:40.030Z,1014.81
2022-10-05T07:23:42.768Z,1014.86
2022-10-05T07:24:45.577Z,1014.86
2022-10-05T07:26:20.510Z,1014.88
2022-10-05T07:27:23.235Z,1014.81
2022-10-05T07:28:26.443Z,1014.88
2022-10-05T07:30:01.516Z,1014.83
2022-10-05T07:31:04.545Z,1014.86
2022-10-05T07:32:07.975Z,1014.87
2022-10-05T07:33:42.715Z,1014.87
2022-10-05T07:34:45.461Z,1014.82
2022-10-05T07:35:48.318Z,1014.87
2022-10-05T07:37:23.062Z,1014.87
2022-10-05T07:38:25.884Z,1014.89
2022-10-05T07:39:55.363Z,1014.86
2022-10-05T07:41:34.056Z,1014.84
2022-10-05T07:42:44.585Z,1014.82
2022-10-05T07:44:18.470Z,1014.83
2022-10-05T07:45:53.397Z,1014.76
2022-10-05T07:46:57.493Z,1014.70
2022-10-05T07:48:00.312Z,1014.78
2022-10-05T07:49:35.198Z,1014.86
2022-10-05T07:50:38.517Z,1014.81
2022-10-05T07:51:41.315Z,1014.81
2022-10-05T07:53:21.002Z,1014.75
2022-10-05T07:54:24.074Z,1014.81
2022-10-05T07:55:26.920Z,1014.77
2022-10-05T07:57:02.087Z,1014.80
2022-10-05T07:58:04.812Z,1014.78
2022-10-05T07:59:07.966Z,1014.75
2022-10-05T08:00:23.265Z,1014.72
2022-10-05T08:01:26.427Z,1014.75
2022-10-05T08:02:30.418Z,1014.73
2022-10-05T08:04:06.323Z,1014.73
2022-10-05T08:05:09.252Z,1014.72
2022-10-05T08:06:12.365Z,1014.71
2022-10-05T08:07:47.685Z,1014.71
2022-10-05T08:08:50.479Z,1014.63
2022-10-05T08:09:53.236Z,1014.74
2022-10-05T08:11:28.038Z,1014.66
2022-10-05T08:12:31.380Z,1014.74
2022-10-05T08:13:34.152Z,1014.70
2022-10-05T08:15:08.661Z,1014.66
2022-10-05T08:16:11.671Z,1014.65
2022-10-05T08:17:14.818Z,1014.57
2022-10-05T08:18:54.691Z,1014.63
2022-10-05T08:19:57.680Z,1014.65
2022-10-05T08:21:00.565Z,1014.63
2022-10-05T08:22:36.172Z,1014.60
2022-10-05T08:23:38.885Z,1014.53
2022-10-05T08:24:41.712Z,1014.58
2022-10-05T08:26:16.419Z,1014.61
2022-10-05T08:27:19.310Z,1014.60
2022-10-05T08:28:22.437Z,1014.56
2022-10-05T08:30:02.024Z,1014.62
2022-10-05T08:31:05.268Z,1014.59
2022-10-05T08:32:08.897Z,1014.55
2022-10-05T08:33:43.821Z,1014.57
2022-10-05T08:34:46.847Z,1014.51
2022-10-05T08:35:49.797Z,1014.46
2022-10-05T08:37:24.367Z,1014.50
2022-10-05T08:38:27.348Z,1014.45
2022-10-05T08:39:30.182Z,1014.51
2022-10-05T08:41:05.007Z,1014.44
2022-10-05T08:42:08.048Z,1014.38
2022-10-05T08:43:10.840Z,1014.43
2022-10-05T08:44:52.256Z,1014.38
2022-10-05T08:45:55.306Z,1014.44
2022-10-05T08:46:58.454Z,1014.44
2022-10-05T08:48:32.945Z,1014.46
2022-10-05T08:49:40.785Z,1014.41
2022-10-05T08:50:43.714Z,1014.43
2022-10-05T08:52:18.356Z,1014.42
2022-10-05T08:53:21.370Z,1014.42
2022-10-05T08:54:24.020Z,1014.40
2022-10-05T08:55:58.517Z,1014.40
2022-10-05T08:57:06.931Z,1014.36
2022-10-05T08:58:09.910Z,1014.36
2022-10-05T08:59:44.485Z,1014.37
2022-10-05T09:00:23.053Z,1014.37
2022-10-05T09:01:26.106Z,1014.35
2022-10-05T09:02:29.494Z,1014.38
2022-10-05T09:04:04.560Z,1014.31
2022-10-05T09:05:07.407Z,1014.27
2022-10-05T09:06:10.342Z,1014.36
2022-10-05T09:07:48.569Z,1014.27
2022-10-05T09:08:51.384Z,1014.31
2022-10-05T09:09:56.250Z,1014.26
2022-10-05T09:11:34.289Z,1014.25
2022-10-05T09:12:37.507Z,1014.28
2022-10-05T09:13:40.218Z,1014.29
2022-10-05T09:15:32.629Z,1014.27
2022-10-05T09:16:35.723Z,1014.25
2022-10-05T09:17:44.758Z,1014.22
2022-10-05T09:19:19.398Z,1014.26
2022-10-05T09:20:22.306Z,1014.16
2022-10-05T09:21:25.301Z,1014.24
2022-10-05T09:23:00.171Z,1014.14
2022-10-05T09:24:03.167Z,1014.14
2022-10-05T09:25:05.999Z,1014.15
2022-10-05T09:26:40.794Z,1014.12
2022-10-05T09:27:43.658Z,1014.10
2022-10-05T09:28:47.176Z,1014.09
2022-10-05T09:30:21.907Z,1014.09
2022-10-05T09:31:25.396Z,1014.07
2022-10-05T09:32:28.527Z,1014.10
2022-10-05T09:34:03.069Z,1014.13
2022-10-05T09:35:05.906Z,1014.09
2022-10-05T09:36:08.547Z,1014.07
2022-10-05T09:37:43.180Z,1014.02
2022-10-05T09:38:46.089Z,1014.03
2022-10-05T09:39:48.939Z,1014.09
2022-10-05T09:41:30.057Z,1014.06
2022-10-05T09:42:33.438Z,1014.05
2022-10-05T09:43:36.804Z,1014.06
2022-10-05T09:45:12.174Z,1014.06
2022-10-05T09:46:19.168Z,1013.95
2022-10-05T09:47:22.454Z,1013.96
2022-10-05T09:48:57.359Z,1014.06
2022-10-05T09:50:00.707Z,1013.96
2022-10-05T09:51:03.691Z,1013.98
2022-10-05T09:52:39.154Z,1013.97
2022-10-05T09:53:42.003Z,1013.97
2022-10-05T09:54:45.011Z,1013.97
2022-10-05T09:56:19.870Z,1013.94
2022-10-05T09:57:22.938Z,1013.91
2022-10-05T09:58:25.659Z,1013.86
2022-10-05T10:00:00.631Z,1013.90
2022-10-05T10:00:23.856Z,1013.90
2022-10-05T10:01:44.447Z,1013.81
2022-10-05T10:02:48.961Z,1013.83
2022-10-05T10:04:24.454Z,1013.81
2022-10-05T10:05:27.334Z,1013.83
2022-10-05T10:06:30.107Z,1013.81
2022-10-05T10:08:05.119Z,1013.78
2022-10-05T10:09:07.821Z,1013.78
2022-10-05T10:10:10.654Z,1013.77
2022-10-05T10:11:45.810Z,1013.76
2022-10-05T10:12:48.784Z,1013.74
2022-10-05T10:13:51.610Z,1013.75
2022-10-05T10:15:26.270Z,1013.73
2022-10-05T10:16:29.497Z,1013.75
2022-10-05T10:17:32.531Z,1013.71
2022-10-05T10:19:06.968Z,1013.69
2022-10-05T10:20:09.942Z,1013.64
2022-10-05T10:21:12.963Z,1013.56
2022-10-05T10:22:54.114Z,1013.59
2022-10-05T10:23:56.915Z,1013.67
2022-10-05T10:24:59.996Z,1013.59
2022-10-05T10:26:35.197Z,1013.53
2022-10-05T10:27:38.403Z,1013.52
2022-10-05T10:28:44.505Z,1013.52
2022-10-05T10:30:19.479Z,1013.62
2022-10-05T10:31:28.914Z,1013.57
2022-10-05T10:32:32.262Z,1013.55
2022-10-05T10:34:06.880Z,1013.50
2022-10-05T10:35:09.658Z,1013.53
2022-10-05T10:36:18.209Z,1013.47
2022-10-05T10:37:52.847Z,1013.49
2022-10-05T10:38:55.806Z,1013.44
2022-10-05T10:39:58.641Z,1013.46
2022-10-05T10:41:33.590Z,1013.46
2022-10-05T10:42:37.711Z,1013.36
2022-10-05T10:43:40.501Z,1013.40
2022-10-05T10:45:15.459Z,1013.40
2022-10-05T10:46:18.723Z,1013.39
2022-10-05T10:47:22.220Z,1013.36
2022-10-05T10:48:56.963Z,1013.34
2022-10-05T10:49:59.854Z,1013.31
2022-10-05T10:51:02.549Z,1013.26
2022-10-05T10:52:37.042Z,1013.31
2022-10-05T10:53:40.163Z,1013.30
2022-10-05T10:54:43.061Z,1013.20
2022-10-05T10:56:17.928Z,1013.37
2022-10-05T10:57:20.755Z,1013.43
2022-10-05T10:58:27.730Z,1013.37
2022-10-05T11:00:23.296Z,1013.35
2022-10-05T11:01:26.452Z,1013.34
2022-10-05T11:02:29.974Z,1013.29
2022-10-05T11:04:05.282Z,1013.28
2022-10-05T11:05:08.209Z,1013.26
2022-10-05T11:06:11.116Z,1013.33
2022-10-05T11:07:45.973Z,1013.37
2022-10-05T11:08:49.114Z,1013.36
2022-10-05T11:09:51.941Z,1013.34
2022-10-05T11:11:26.585Z,1013.32
2022-10-05T11:12:33.631Z,1013.33
2022-10-05T11:13:37.535Z,1013.29
2022-10-05T11:15:12.245Z,1013.38
2022-10-05T11:16:19.507Z,1013.28
2022-10-05T11:17:22.879Z,1013.33
2022-10-05T11:18:57.889Z,1013.27
2022-10-05T11:20:16.041Z,1013.25
2022-10-05T11:21:18.893Z,1013.27
2022-10-05T11:22:53.521Z,1013.27
2022-10-05T11:23:56.253Z,1013.30
2022-10-05T11:24:59.067Z,1013.19
2022-10-05T11:26:34.122Z,1013.24
2022-10-05T11:27:37.662Z,1013.21
2022-10-05T11:28:40.767Z,1013.22
2022-10-05T11:30:15.355Z,1013.20
2022-10-05T11:31:18.632Z,1013.22
2022-10-05T11:32:21.906Z,1013.02
2022-10-05T11:33:56.530Z,1013.13
2022-10-05T11:34:59.517Z,1013.03
2022-10-05T11:36:02.421Z,1012.99
2022-10-05T11:37:37.421Z,1012.98
2022-10-05T11:38:40.329Z,1012.96
2022-10-05T11:39:43.435Z,1012.99
2022-10-05T11:41:17.998Z,1013.04
2022-10-05T11:42:20.960Z,1013.02
2022-10-05T11:43:23.789Z,1012.96
2022-10-05T11:45:04.833Z,1012.94
2022-10-05T11:46:08.095Z,1012.97
2022-10-05T11:47:11.379Z,1012.89
2022-10-05T11:48:46.079Z,1012.92
2022-10-05T11:49:48.791Z,1012.88
2022-10-05T11:50:51.673Z,1012.96
2022-10-05T11:52:26.694Z,1012.95
2022-10-05T11:53:29.591Z,1012.90
2022-10-05T11:54:38.287Z,1012.95
2022-10-05T11:56:39.533Z,1012.92
2022-10-05T11:57:47.200Z,1012.94
2022-10-05T11:58:50.235Z,1012.97
2022-10-05T12:00:23.978Z,1012.97
2022-10-05T12:01:26.977Z,1012.95
2022-10-05T12:02:29.801Z,1012.92
2022-10-05T12:04:10.866Z,1012.90
2022-10-05T12:05:14.067Z,1012.84
2022-10-05T12:06:17.003Z,1012.81
2022-10-05T12:07:51.762Z,1012.84
2022-10-05T12:08:54.695Z,1012.83
2022-10-05T12:09:57.713Z,1012.70
2022-10-05T12:11:32.497Z,1012.79
2022-10-05T12:12:35.552Z,1012.81
2022-10-05T12:13:38.547Z,1012.81
2022-10-05T12:15:12.944Z,1012.74
2022-10-05T12:16:15.811Z,1012.77
2022-10-05T12:17:18.776Z,1012.73
2022-10-05T12:18:53.704Z,1012.68
2022-10-05T12:19:56.759Z,1012.66
2022-10-05T12:20:59.774Z,1012.67
2022-10-05T12:22:34.602Z,1012.65
2022-10-05T12:23:37.437Z,1012.70
2022-10-05T12:24:40.410Z,1012.66
2022-10-05T12:26:15.281Z,1012.65
2022-10-05T12:27:18.245Z,1012.62
2022-10-05T12:28:21.674Z,1012.59
2022-10-05T12:29:56.514Z,1012.60
2022-10-05T12:30:59.648Z,1012.60
2022-10-05T12:32:02.997Z,1012.60
2022-10-05T12:33:37.718Z,1012.66
2022-10-05T12:34:40.430Z,1012.56
2022-10-05T12:36:00.105Z,1012.49
2022-10-05T12:38:00.510Z,1012.41
2022-10-05T12:39:03.371Z,1012.40
2022-10-05T12:40:06.387Z,1012.49
2022-10-05T12:41:41.912Z,1012.49
2022-10-05T12:42:50.622Z,1012.47
2022-10-05T12:43:53.508Z,1012.49
2022-10-05T12:45:28.292Z,1012.43
2022-10-05T12:46:31.465Z,1012.45
2022-10-05T12:47:34.413Z,1012.45
2022-10-05T12:49:13.787Z,1012.47
2022-10-05T12:50:16.764Z,1012.41
2022-10-05T12:51:19.511Z,1012.41
2022-10-05T12:52:54.251Z,1012.45
2022-10-05T12:53:57.039Z,1012.37
2022-10-05T12:55:00.032Z,1012.39
2022-10-05T12:56:35.080Z,1012.41
2022-10-05T12:57:38.050Z,1012.36
2022-10-05T12:58:41.043Z,1012.34
2022-10-05T13:00:28.808Z,1012.34
2022-10-05T13:01:32.110Z,1012.34
2022-10-05T13:02:35.180Z,1012.37
2022-10-05T13:04:09.877Z,1012.40
2022-10-05T13:05:12.779Z,1012.34
2022-10-05T13:06:16.542Z,1012.36
2022-10-05T13:07:51.436Z,1012.29
2022-10-05T13:08:54.245Z,1012.24
2022-10-05T13:09:57.085Z,1012.28
2022-10-05T13:11:31.672Z,1012.36
2022-10-05T13:12:34.602Z,1012.26
2022-10-05T13:13:37.356Z,1012.23
2022-10-05T13:15:11.873Z,1012.25
2022-10-05T13:16:15.489Z,1012.24
2022-10-05T13:17:18.997Z,1012.34
2022-10-05T13:18:54.936Z,1012.26
2022-10-05T13:19:57.633Z,1012.26
2022-10-05T13:21:00.698Z,1012.25
2022-10-05T13:22:35.788Z,1012.20
2022-10-05T13:23:38.721Z,1012.22
2022-10-05T13:24:46.902Z,1012.23
2022-10-05T13:26:22.675Z,1012.23
2022-10-05T13:27:25.547Z,1012.25
2022-10-05T13:28:28.647Z,1012.24
2022-10-05T13:30:05.799Z,1012.18
2022-10-05T13:31:08.950Z,1012.15
2022-10-05T13:32:12.000Z,1012.22
2022-10-05T13:33:46.890Z,1012.17
2022-10-05T13:34:49.629Z,1012.15
2022-10-05T13:35:57.626Z,1012.21
2022-10-05T13:37:32.991Z,1012.10
2022-10-05T13:38:36.050Z,1012.10
2022-10-05T13:39:39.190Z,1012.12
2022-10-05T13:41:14.132Z,1012.12
2022-10-05T13:42:16.881Z,1012.08
2022-10-05T13:43:19.773Z,1012.09
2022-10-05T13:44:55.690Z,1012.07
2022-10-05T13:46:02.915Z,1012.06
2022-10-05T13:47:07.111Z,1011.96
2022-10-05T13:48:41.858Z,1012.09
2022-10-05T13:49:44.825Z,1012.04
2022-10-05T13:50:48.135Z,1012.02
2022-10-05T13:52:22.798Z,1012.08
2022-10-05T13:53:25.483Z,1012.06
2022-10-05T13:54:28.390Z,1012.11
2022-10-05T13:56:03.245Z,1012.10
2022-10-05T13:57:06.247Z,1012.11
2022-10-05T13:58:09.281Z,1012.04
2022-10-05T13:59:44.171Z,1012.01
2022-10-05T14:00:27.091Z,1012.07
2022-10-05T14:01:30.118Z,1012.03
2022-10-05T14:02:33.320Z,1012.04
2022-10-05T14:04:08.101Z,1011.96
2022-10-05T14:05:11.108Z,1011.99
2022-10-05T14:06:13.917Z,1011.91
2022-10-05T14:07:48.590Z,1011.94
2022-10-05T14:08:51.603Z,1011.99
2022-10-05T14:09:54.339Z,1011.96
2022-10-05T14:11:29.233Z,1011.96
2022-10-05T14:12:32.117Z,1011.94
2022-10-05T14:13:35.084Z,1011.93
2022-10-05T14:15:09.851Z,1011.81
2022-10-05T14:16:12.762Z,1011.88
2022-10-05T14:17:16.151Z,1011.85
2022-10-05T14:18:56.885Z,1011.82
2022-10-05T14:19:59.952Z,1011.88
2022-10-05T14:21:02.825Z,1011.89
2022-10-05T14:22:37.987Z,1011.90
2022-10-05T14:23:41.480Z,1011.86
2022-10-05T14:24:55.198Z,1011.86
2022-10-05T14:26:30.134Z,1011.87
2022-10-05T14:27:32.966Z,1011.88
2022-10-05T14:28:36.507Z,1011.78
2022-10-05T14:30:11.241Z,1011.87
2022-10-05T14:31:14.588Z,1011.89
2022-10-05T14:32:18.470Z,1011.92
2022-10-05T14:33:53.805Z,1011.90
2022-10-05T14:34:57.408Z,1011.91
2022-10-05T14:36:00.216Z,1011.86
2022-10-05T14:37:41.828Z,1011.91
2022-10-05T14:38:44.730Z,1011.94
2022-10-05T14:39:47.825Z,1011.90
2022-10-05T14:41:23.688Z,1011.85
2022-10-05T14:42:26.529Z,1011.85
2022-10-05T14:43:33.568Z,1011.87
2022-10-05T14:45:08.243Z,1011.84
2022-10-05T14:46:11.604Z,1011.81
2022-10-05T14:47:21.920Z,1011.83
2022-10-05T14:48:56.581Z,1011.77
2022-10-05T14:49:59.595Z,1011.72
2022-10-05T14:51:02.719Z,1011.76
2022-10-05T14:52:37.508Z,1011.76
2022-10-05T14:53:43.619Z,1011.76
2022-10-05T14:54:46.546Z,1011.82
2022-10-05T14:56:22.614Z,1011.72